BRA295 ENTC-ENSB
Flight info
| Callsign | BRA295 |
|---|---|
| Flight time | 1h 21m |
| Altitude | 38000 |
| Route | LOMVI P600 INPAR |
| Aircraft | B736/M-SDE2E3FGHIRWXY/LB1 |
Departure
| Time | 2026-05-07 19:08 |
|---|---|
| Airport | Tromsø Airport (ENTC) |
Arrival
| Time | 2026-05-07 20:29 |
|---|---|
| Airport | Svalbard Airport, Longyear (ENSB) |
| Time | Latitude | Longitude | Altitude | Speed | Heading |
|---|---|---|---|---|---|
| 2026-05-07 18:27 | 69.68051 | 18.90968 | 33 ft | 0 kts | 283° |
| 2026-05-07 19:01 | 69.68051 | 18.90969 | 33 ft | 1 kts | 283° |
| 2026-05-07 19:01 | 69.68045 | 18.91042 | 32 ft | 4 kts | 283° |
| 2026-05-07 19:01 | 69.68039 | 18.91117 | 32 ft | 3 kts | 282° |
| 2026-05-07 19:01 | 69.68036 | 18.91157 | 21 ft | 2 kts | 283° |
| 2026-05-07 19:02 | 69.68034 | 18.91179 | 13 ft | 0 kts | 283° |
| 2026-05-07 19:03 | 69.68036 | 18.91172 | 16 ft | 1 kts | 302° |
| 2026-05-07 19:04 | 69.68052 | 18.91183 | 17 ft | 4 kts | 37° |
| 2026-05-07 19:04 | 69.68075 | 18.91310 | 34 ft | 10 kts | 46° |
| 2026-05-07 19:04 | 69.68143 | 18.91374 | 33 ft | 11 kts | 12° |
| 2026-05-07 19:04 | 69.68229 | 18.91431 | 28 ft | 14 kts | 13° |
| 2026-05-07 19:05 | 69.68329 | 18.91494 | 26 ft | 15 kts | 7° |
| 2026-05-07 19:05 | 69.68430 | 18.91498 | 26 ft | 14 kts | 2° |
| 2026-05-07 19:05 | 69.68525 | 18.91550 | 25 ft | 14 kts | 13° |
| 2026-05-07 19:05 | 69.68626 | 18.91618 | 20 ft | 17 kts | 13° |
| 2026-05-07 19:06 | 69.68738 | 18.91693 | 19 ft | 14 kts | 13° |
| 2026-05-07 19:06 | 69.68752 | 18.92122 | 19 ft | 10 kts | 123° |
| 2026-05-07 19:06 | 69.68713 | 18.92141 | 21 ft | 0 kts | 192° |
| 2026-05-07 19:07 | 69.68645 | 18.92097 | 23 ft | 41 kts | 193° |
| 2026-05-07 19:07 | 69.68083 | 18.91723 | 34 ft | 122 kts | 193° |
| 2026-05-07 19:08 | 69.67112 | 18.91052 | 396 ft | 152 kts | 193° |
| 2026-05-07 19:08 | 69.66108 | 18.90386 | 1423 ft | 148 kts | 193° |
| 2026-05-07 19:08 | 69.65069 | 18.89712 | 2221 ft | 164 kts | 192° |
| 2026-05-07 19:08 | 69.63827 | 18.88920 | 2650 ft | 198 kts | 192° |
| 2026-05-07 19:09 | 69.61405 | 18.87393 | 4167 ft | 207 kts | 192° |
| 2026-05-07 19:09 | 69.59552 | 18.86106 | 5495 ft | 210 kts | 204° |
| 2026-05-07 19:09 | 69.58477 | 18.83419 | 6424 ft | 212 kts | 240° |
| 2026-05-07 19:09 | 69.58085 | 18.79399 | 7351 ft | 213 kts | 270° |
| 2026-05-07 19:10 | 69.58469 | 18.73251 | 8688 ft | 216 kts | 282° |
| 2026-05-07 19:10 | 69.58970 | 18.67857 | 9927 ft | 219 kts | 295° |
| 2026-05-07 19:10 | 69.59986 | 18.64628 | 10752 ft | 224 kts | 328° |
| 2026-05-07 19:10 | 69.61507 | 18.63399 | 11412 ft | 240 kts | 359° |
| 2026-05-07 19:11 | 69.63211 | 18.64822 | 11683 ft | 273 kts | 26° |
| 2026-05-07 19:11 | 69.64948 | 18.67678 | 11929 ft | 302 kts | 29° |
| 2026-05-07 19:11 | 69.66827 | 18.70937 | 12163 ft | 329 kts | 29° |
| 2026-05-07 19:11 | 69.69650 | 18.75826 | 12858 ft | 352 kts | 29° |
| 2026-05-07 19:12 | 69.73926 | 18.83118 | 14495 ft | 362 kts | 28° |
| 2026-05-07 19:12 | 69.78320 | 18.90537 | 16057 ft | 370 kts | 28° |
| 2026-05-07 19:12 | 69.81688 | 18.96132 | 17235 ft | 375 kts | 23° |
| 2026-05-07 19:12 | 69.84182 | 18.98123 | 17982 ft | 373 kts | 2° |
| 2026-05-07 19:13 | 69.88821 | 18.98577 | 19325 ft | 377 kts | 359° |
| 2026-05-07 19:13 | 69.94100 | 18.98895 | 20712 ft | 383 kts | 359° |
| 2026-05-07 19:13 | 69.99491 | 18.99351 | 22039 ft | 391 kts | 0° |
| 2026-05-07 19:13 | 70.04974 | 18.99876 | 23364 ft | 399 kts | 1° |
| 2026-05-07 19:14 | 70.08433 | 18.99953 | 24067 ft | 403 kts | 353° |
| 2026-05-07 19:14 | 70.11764 | 18.97332 | 24714 ft | 405 kts | 341° |
| 2026-05-07 19:14 | 70.17230 | 18.91905 | 25731 ft | 414 kts | 341° |
| 2026-05-07 19:14 | 70.22677 | 18.86593 | 26723 ft | 420 kts | 341° |
| 2026-05-07 19:15 | 70.28285 | 18.81196 | 27670 ft | 428 kts | 341° |
| 2026-05-07 19:15 | 70.32143 | 18.78231 | 28212 ft | 434 kts | 354° |
| 2026-05-07 19:15 | 70.35405 | 18.78637 | 28678 ft | 439 kts | 7° |
| 2026-05-07 19:15 | 70.41448 | 18.81971 | 29539 ft | 445 kts | 11° |
| 2026-05-07 19:16 | 70.47579 | 18.85733 | 30277 ft | 452 kts | 11° |
| 2026-05-07 19:16 | 70.51476 | 18.87292 | 30641 ft | 454 kts | 358° |
| 2026-05-07 19:16 | 70.55730 | 18.85841 | 31198 ft | 452 kts | 347° |
| 2026-05-07 19:16 | 70.59765 | 18.83005 | 31722 ft | 452 kts | 346° |
| 2026-05-07 19:17 | 70.65899 | 18.78340 | 32371 ft | 455 kts | 345° |
| 2026-05-07 19:17 | 70.69661 | 18.75413 | 32943 ft | 452 kts | 345° |
| 2026-05-07 19:17 | 70.72700 | 18.72903 | 33290 ft | 453 kts | 342° |
| 2026-05-07 19:17 | 70.75707 | 18.69911 | 33539 ft | 456 kts | 341° |
| 2026-05-07 19:18 | 70.78707 | 18.66726 | 33815 ft | 458 kts | 340° |
| 2026-05-07 19:18 | 70.81703 | 18.63486 | 34187 ft | 457 kts | 341° |
| 2026-05-07 19:18 | 70.84726 | 18.60524 | 34506 ft | 455 kts | 343° |
| 2026-05-07 19:18 | 70.87766 | 18.57765 | 34800 ft | 455 kts | 343° |
| 2026-05-07 19:19 | 70.90803 | 18.54933 | 34981 ft | 458 kts | 342° |
| 2026-05-07 19:19 | 70.93841 | 18.51880 | 35169 ft | 460 kts | 341° |
| 2026-05-07 19:19 | 70.96869 | 18.48771 | 35487 ft | 458 kts | 341° |
| 2026-05-07 19:19 | 70.99887 | 18.45650 | 35831 ft | 456 kts | 341° |
| 2026-05-07 19:20 | 71.02864 | 18.42555 | 36381 ft | 448 kts | 341° |
| 2026-05-07 19:20 | 71.05801 | 18.39486 | 36890 ft | 442 kts | 341° |
| 2026-05-07 19:20 | 71.08701 | 18.36446 | 37325 ft | 439 kts | 341° |
| 2026-05-07 19:20 | 71.11543 | 18.33462 | 37667 ft | 436 kts | 341° |
| 2026-05-07 19:21 | 71.14418 | 18.30443 | 37922 ft | 437 kts | 341° |
| 2026-05-07 19:21 | 71.17304 | 18.27416 | 38100 ft | 439 kts | 341° |
| 2026-05-07 19:21 | 71.23050 | 18.20611 | 38115 ft | 443 kts | 332° |
| 2026-05-07 19:22 | 71.28101 | 18.09867 | 38120 ft | 437 kts | 322° |
| 2026-05-07 19:22 | 71.32851 | 17.98149 | 38112 ft | 434 kts | 321° |
| 2026-05-07 19:23 | 71.37538 | 17.86384 | 38113 ft | 431 kts | 321° |
| 2026-05-07 19:23 | 71.40031 | 17.81210 | 38101 ft | 430 kts | 334° |
| 2026-05-07 19:23 | 71.42763 | 17.77416 | 38136 ft | 430 kts | 337° |
| 2026-05-07 19:24 | 71.48392 | 17.70384 | 38135 ft | 440 kts | 338° |
| 2026-05-07 19:24 | 71.54096 | 17.63101 | 38118 ft | 443 kts | 337° |
| 2026-05-07 19:25 | 71.59780 | 17.55547 | 38126 ft | 443 kts | 337° |
| 2026-05-07 19:25 | 71.65449 | 17.47872 | 38128 ft | 443 kts | 337° |
| 2026-05-07 19:26 | 71.71103 | 17.40159 | 38126 ft | 442 kts | 336° |
| 2026-05-07 19:26 | 71.76750 | 17.32414 | 38143 ft | 449 kts | 336° |
| 2026-05-07 19:27 | 71.82550 | 17.24411 | 38142 ft | 458 kts | 336° |
| 2026-05-07 19:27 | 71.88441 | 17.16226 | 38141 ft | 465 kts | 336° |
| 2026-05-07 19:28 | 71.94379 | 17.07923 | 38135 ft | 466 kts | 336° |
| 2026-05-07 19:28 | 72.00410 | 17.00178 | 38128 ft | 466 kts | 345° |
| 2026-05-07 19:29 | 72.06798 | 16.96939 | 38139 ft | 465 kts | 354° |
| 2026-05-07 19:29 | 72.13235 | 16.94765 | 38144 ft | 465 kts | 354° |
| 2026-05-07 19:30 | 72.19664 | 16.92525 | 38150 ft | 464 kts | 354° |
| 2026-05-07 19:30 | 72.26081 | 16.90139 | 38152 ft | 463 kts | 354° |
| 2026-05-07 19:31 | 72.32479 | 16.87679 | 38150 ft | 463 kts | 353° |
| 2026-05-07 19:31 | 72.38874 | 16.85192 | 38157 ft | 462 kts | 353° |
| 2026-05-07 19:32 | 72.45215 | 16.82710 | 38157 ft | 461 kts | 353° |
| 2026-05-07 19:32 | 72.51596 | 16.80200 | 38162 ft | 461 kts | 353° |
| 2026-05-07 19:33 | 72.57964 | 16.77678 | 38160 ft | 461 kts | 353° |
| 2026-05-07 19:33 | 72.64326 | 16.75140 | 38169 ft | 460 kts | 354° |
| 2026-05-07 19:34 | 72.70695 | 16.72582 | 38165 ft | 460 kts | 353° |
| 2026-05-07 19:34 | 72.77061 | 16.70006 | 38176 ft | 460 kts | 353° |
| 2026-05-07 19:35 | 72.83384 | 16.67429 | 38174 ft | 461 kts | 353° |
| 2026-05-07 19:35 | 72.89753 | 16.64814 | 38177 ft | 461 kts | 353° |
| 2026-05-07 19:36 | 72.96120 | 16.62181 | 38177 ft | 461 kts | 353° |
| 2026-05-07 19:36 | 73.02496 | 16.59525 | 38182 ft | 461 kts | 353° |
| 2026-05-07 19:37 | 73.08870 | 16.56851 | 38184 ft | 462 kts | 353° |
| 2026-05-07 19:37 | 73.15252 | 16.54153 | 38187 ft | 462 kts | 353° |
| 2026-05-07 19:38 | 73.21624 | 16.51439 | 38193 ft | 462 kts | 353° |
| 2026-05-07 19:38 | 73.28003 | 16.48702 | 38187 ft | 462 kts | 353° |
| 2026-05-07 19:39 | 73.34386 | 16.45943 | 38205 ft | 462 kts | 353° |
| 2026-05-07 19:39 | 73.40764 | 16.43165 | 38200 ft | 462 kts | 353° |
| 2026-05-07 19:40 | 73.47141 | 16.40366 | 38209 ft | 462 kts | 353° |
| 2026-05-07 19:40 | 73.53477 | 16.37565 | 38210 ft | 461 kts | 353° |
| 2026-05-07 19:41 | 73.59845 | 16.34728 | 38214 ft | 461 kts | 353° |
| 2026-05-07 19:41 | 73.66213 | 16.31869 | 38222 ft | 461 kts | 353° |
| 2026-05-07 19:42 | 73.72570 | 16.28994 | 38215 ft | 461 kts | 353° |
| 2026-05-07 19:42 | 73.78937 | 16.26092 | 38229 ft | 460 kts | 353° |
| 2026-05-07 19:43 | 73.85288 | 16.23174 | 38221 ft | 460 kts | 353° |
| 2026-05-07 19:43 | 73.91608 | 16.20249 | 38238 ft | 460 kts | 353° |
| 2026-05-07 19:44 | 73.97963 | 16.17284 | 38228 ft | 460 kts | 353° |
| 2026-05-07 19:44 | 74.04314 | 16.14299 | 38246 ft | 460 kts | 353° |
| 2026-05-07 19:45 | 74.10661 | 16.11291 | 38246 ft | 460 kts | 353° |
| 2026-05-07 19:45 | 74.17012 | 16.08258 | 38244 ft | 460 kts | 353° |
| 2026-05-07 19:46 | 74.23357 | 16.05205 | 38250 ft | 460 kts | 353° |
| 2026-05-07 19:46 | 74.29707 | 16.02123 | 38245 ft | 460 kts | 353° |
| 2026-05-07 19:47 | 74.36059 | 15.99017 | 38249 ft | 460 kts | 353° |
| 2026-05-07 19:47 | 74.42405 | 15.95889 | 38245 ft | 460 kts | 353° |
| 2026-05-07 19:48 | 74.48756 | 15.92732 | 38256 ft | 460 kts | 353° |
| 2026-05-07 19:48 | 74.55105 | 15.89552 | 38255 ft | 460 kts | 353° |
| 2026-05-07 19:49 | 74.61457 | 15.86344 | 38262 ft | 460 kts | 352° |
| 2026-05-07 19:49 | 74.67810 | 15.83109 | 38262 ft | 460 kts | 352° |
| 2026-05-07 19:50 | 74.74120 | 15.79871 | 38263 ft | 460 kts | 352° |
| 2026-05-07 19:50 | 74.80467 | 15.76586 | 38265 ft | 460 kts | 352° |
| 2026-05-07 19:51 | 74.86807 | 15.73278 | 38263 ft | 460 kts | 352° |
| 2026-05-07 19:51 | 74.93152 | 15.69939 | 38274 ft | 460 kts | 352° |
| 2026-05-07 19:52 | 74.99487 | 15.66579 | 38271 ft | 460 kts | 352° |
| 2026-05-07 19:52 | 75.05822 | 15.63190 | 38284 ft | 459 kts | 352° |
| 2026-05-07 19:53 | 75.12157 | 15.59772 | 38279 ft | 459 kts | 352° |
| 2026-05-07 19:53 | 75.18491 | 15.56327 | 38288 ft | 459 kts | 352° |
| 2026-05-07 19:54 | 75.24819 | 15.52856 | 38282 ft | 459 kts | 352° |
| 2026-05-07 19:54 | 75.31144 | 15.49356 | 38296 ft | 459 kts | 352° |
| 2026-05-07 19:55 | 75.37462 | 15.45830 | 38287 ft | 459 kts | 352° |
| 2026-05-07 19:55 | 75.43779 | 15.42276 | 38297 ft | 458 kts | 352° |
| 2026-05-07 19:56 | 75.50094 | 15.38691 | 38300 ft | 458 kts | 352° |
| 2026-05-07 19:56 | 75.56409 | 15.35076 | 38296 ft | 458 kts | 352° |
| 2026-05-07 19:57 | 75.62716 | 15.31433 | 38305 ft | 458 kts | 352° |
| 2026-05-07 19:57 | 75.69016 | 15.27763 | 38297 ft | 458 kts | 352° |
| 2026-05-07 19:58 | 75.75276 | 15.24085 | 38312 ft | 458 kts | 352° |
| 2026-05-07 19:58 | 75.81586 | 15.20345 | 38297 ft | 458 kts | 352° |
| 2026-05-07 19:59 | 75.87890 | 15.16574 | 38312 ft | 457 kts | 352° |
| 2026-05-07 19:59 | 75.94190 | 15.12774 | 38314 ft | 458 kts | 352° |
| 2026-05-07 20:00 | 76.00487 | 15.08941 | 38319 ft | 457 kts | 352° |
| 2026-05-07 20:00 | 76.06785 | 15.05073 | 38319 ft | 458 kts | 352° |
| 2026-05-07 20:01 | 76.13085 | 15.01169 | 38319 ft | 458 kts | 352° |
| 2026-05-07 20:01 | 76.19385 | 14.97229 | 38320 ft | 458 kts | 352° |
| 2026-05-07 20:02 | 76.25689 | 14.93252 | 38318 ft | 458 kts | 352° |
| 2026-05-07 20:02 | 76.31995 | 14.89240 | 38323 ft | 458 kts | 352° |
| 2026-05-07 20:03 | 76.38254 | 14.85190 | 38320 ft | 458 kts | 352° |
| 2026-05-07 20:03 | 76.44555 | 14.81037 | 38328 ft | 458 kts | 352° |
| 2026-05-07 20:04 | 76.50871 | 14.76837 | 37944 ft | 464 kts | 351° |
| 2026-05-07 20:04 | 76.54077 | 14.74693 | 37289 ft | 464 kts | 352° |
| 2026-05-07 20:04 | 76.57261 | 14.72554 | 36586 ft | 462 kts | 352° |
| 2026-05-07 20:05 | 76.59359 | 14.71139 | 36103 ft | 462 kts | 352° |
| 2026-05-07 20:05 | 76.62538 | 14.68987 | 35307 ft | 462 kts | 352° |
| 2026-05-07 20:05 | 76.65720 | 14.66824 | 34476 ft | 463 kts | 352° |
| 2026-05-07 20:05 | 76.68908 | 14.64646 | 33491 ft | 464 kts | 352° |
| 2026-05-07 20:06 | 76.72091 | 14.62460 | 32555 ft | 462 kts | 352° |
| 2026-05-07 20:06 | 76.75269 | 14.60267 | 31677 ft | 460 kts | 352° |
| 2026-05-07 20:06 | 76.78405 | 14.58092 | 31077 ft | 452 kts | 352° |
| 2026-05-07 20:06 | 76.81493 | 14.55940 | 30443 ft | 446 kts | 352° |
| 2026-05-07 20:07 | 76.84537 | 14.53808 | 29713 ft | 440 kts | 352° |
| 2026-05-07 20:07 | 76.87530 | 14.51703 | 29084 ft | 432 kts | 352° |
| 2026-05-07 20:07 | 76.90475 | 14.49623 | 28470 ft | 424 kts | 352° |
| 2026-05-07 20:07 | 76.93370 | 14.47571 | 27874 ft | 418 kts | 352° |
| 2026-05-07 20:08 | 76.96216 | 14.45544 | 27282 ft | 411 kts | 352° |
| 2026-05-07 20:08 | 76.99021 | 14.43538 | 26696 ft | 406 kts | 352° |
| 2026-05-07 20:08 | 77.01794 | 14.41547 | 26117 ft | 401 kts | 352° |
| 2026-05-07 20:08 | 77.04525 | 14.39579 | 25545 ft | 397 kts | 352° |
| 2026-05-07 20:09 | 77.07238 | 14.37616 | 24979 ft | 393 kts | 352° |
| 2026-05-07 20:09 | 77.09929 | 14.35662 | 24430 ft | 391 kts | 352° |
| 2026-05-07 20:09 | 77.12614 | 14.33703 | 23871 ft | 390 kts | 353° |
| 2026-05-07 20:10 | 77.17949 | 14.31187 | 22624 ft | 380 kts | 5° |
| 2026-05-07 20:10 | 77.20557 | 14.32477 | 22084 ft | 374 kts | 9° |
| 2026-05-07 20:10 | 77.23090 | 14.33977 | 21539 ft | 370 kts | 9° |
| 2026-05-07 20:10 | 77.25625 | 14.35510 | 21017 ft | 367 kts | 9° |
| 2026-05-07 20:11 | 77.28154 | 14.37032 | 20460 ft | 367 kts | 9° |
| 2026-05-07 20:11 | 77.30684 | 14.38534 | 19921 ft | 366 kts | 9° |
| 2026-05-07 20:11 | 77.33206 | 14.40016 | 19387 ft | 363 kts | 9° |
| 2026-05-07 20:11 | 77.35703 | 14.41473 | 18864 ft | 360 kts | 9° |
| 2026-05-07 20:12 | 77.38176 | 14.42912 | 18318 ft | 357 kts | 9° |
| 2026-05-07 20:12 | 77.40625 | 14.44336 | 17775 ft | 353 kts | 9° |
| 2026-05-07 20:12 | 77.43045 | 14.45745 | 17255 ft | 348 kts | 9° |
| 2026-05-07 20:12 | 77.45437 | 14.47142 | 16760 ft | 345 kts | 9° |
| 2026-05-07 20:13 | 77.47820 | 14.48541 | 16247 ft | 345 kts | 9° |
| 2026-05-07 20:13 | 77.50199 | 14.49944 | 15747 ft | 345 kts | 9° |
| 2026-05-07 20:13 | 77.52572 | 14.51348 | 15234 ft | 342 kts | 9° |
| 2026-05-07 20:13 | 77.54926 | 14.52744 | 14727 ft | 339 kts | 9° |
| 2026-05-07 20:14 | 77.57257 | 14.54132 | 14218 ft | 336 kts | 9° |
| 2026-05-07 20:14 | 77.59564 | 14.55510 | 13692 ft | 333 kts | 9° |
| 2026-05-07 20:14 | 77.61845 | 14.56877 | 13208 ft | 328 kts | 9° |
| 2026-05-07 20:14 | 77.64097 | 14.58233 | 12718 ft | 325 kts | 9° |
| 2026-05-07 20:15 | 77.66329 | 14.59582 | 12236 ft | 323 kts | 8° |
| 2026-05-07 20:15 | 77.68561 | 14.60937 | 11752 ft | 324 kts | 8° |
| 2026-05-07 20:15 | 77.70794 | 14.62298 | 11253 ft | 321 kts | 8° |
| 2026-05-07 20:15 | 77.72997 | 14.63643 | 10862 ft | 316 kts | 8° |
| 2026-05-07 20:16 | 77.75124 | 14.64944 | 10734 ft | 302 kts | 8° |
| 2026-05-07 20:16 | 77.77161 | 14.66194 | 10602 ft | 290 kts | 8° |
| 2026-05-07 20:16 | 77.79119 | 14.67400 | 10485 ft | 278 kts | 8° |
| 2026-05-07 20:16 | 77.81005 | 14.68567 | 10379 ft | 267 kts | 8° |
| 2026-05-07 20:17 | 77.82826 | 14.69697 | 10220 ft | 264 kts | 8° |
| 2026-05-07 20:17 | 77.84649 | 14.70835 | 9856 ft | 264 kts | 8° |
| 2026-05-07 20:17 | 77.86442 | 14.71958 | 9542 ft | 262 kts | 8° |
| 2026-05-07 20:17 | 77.88244 | 14.73088 | 9226 ft | 260 kts | 8° |
| 2026-05-07 20:18 | 77.90036 | 14.74214 | 8917 ft | 259 kts | 8° |
| 2026-05-07 20:18 | 77.91821 | 14.75339 | 8594 ft | 258 kts | 8° |
| 2026-05-07 20:18 | 77.93600 | 14.76464 | 8223 ft | 259 kts | 8° |
| 2026-05-07 20:18 | 77.95370 | 14.77585 | 7753 ft | 248 kts | 8° |
| 2026-05-07 20:19 | 77.97022 | 14.78632 | 7422 ft | 231 kts | 8° |
| 2026-05-07 20:19 | 77.98560 | 14.79610 | 7145 ft | 215 kts | 8° |
| 2026-05-07 20:19 | 77.99994 | 14.80524 | 6867 ft | 201 kts | 8° |
| 2026-05-07 20:19 | 78.01331 | 14.81380 | 6625 ft | 188 kts | 8° |
| 2026-05-07 20:20 | 78.02631 | 14.82218 | 6421 ft | 189 kts | 8° |
| 2026-05-07 20:20 | 78.03919 | 14.83046 | 6181 ft | 185 kts | 8° |
| 2026-05-07 20:20 | 78.05185 | 14.83862 | 5961 ft | 183 kts | 8° |
| 2026-05-07 20:20 | 78.06455 | 14.84678 | 5745 ft | 184 kts | 7° |
| 2026-05-07 20:21 | 78.07742 | 14.84260 | 5428 ft | 187 kts | 348° |
| 2026-05-07 20:21 | 78.08975 | 14.83077 | 5188 ft | 174 kts | 350° |
| 2026-05-07 20:21 | 78.10117 | 14.82096 | 4944 ft | 159 kts | 351° |
| 2026-05-07 20:21 | 78.11150 | 14.81222 | 4790 ft | 140 kts | 351° |
| 2026-05-07 20:22 | 78.12070 | 14.80446 | 4619 ft | 129 kts | 351° |
| 2026-05-07 20:22 | 78.12945 | 14.79709 | 4484 ft | 130 kts | 351° |
| 2026-05-07 20:22 | 78.13847 | 14.78950 | 4323 ft | 132 kts | 351° |
| 2026-05-07 20:22 | 78.14755 | 14.78187 | 4156 ft | 132 kts | 351° |
| 2026-05-07 20:23 | 78.15635 | 14.77446 | 4073 ft | 126 kts | 351° |
| 2026-05-07 20:23 | 78.16532 | 14.76690 | 3910 ft | 134 kts | 351° |
| 2026-05-07 20:23 | 78.17440 | 14.75924 | 3772 ft | 131 kts | 351° |
| 2026-05-07 20:23 | 78.18329 | 14.75169 | 3596 ft | 128 kts | 351° |
| 2026-05-07 20:24 | 78.19204 | 14.74643 | 3429 ft | 125 kts | 358° |
| 2026-05-07 20:24 | 78.20078 | 14.74701 | 3288 ft | 127 kts | 5° |
| 2026-05-07 20:24 | 78.20964 | 14.75298 | 3138 ft | 129 kts | 11° |
| 2026-05-07 20:24 | 78.21827 | 14.76432 | 2970 ft | 129 kts | 18° |
| 2026-05-07 20:25 | 78.22653 | 14.78107 | 2801 ft | 127 kts | 26° |
| 2026-05-07 20:25 | 78.23419 | 14.80280 | 2711 ft | 128 kts | 33° |
| 2026-05-07 20:25 | 78.24123 | 14.82917 | 2585 ft | 129 kts | 40° |
| 2026-05-07 20:25 | 78.24757 | 14.86004 | 2454 ft | 129 kts | 48° |
| 2026-05-07 20:26 | 78.25312 | 14.89520 | 2317 ft | 131 kts | 56° |
| 2026-05-07 20:26 | 78.25771 | 14.93385 | 2163 ft | 131 kts | 63° |
| 2026-05-07 20:26 | 78.26121 | 14.97516 | 2007 ft | 130 kts | 71° |
| 2026-05-07 20:26 | 78.26354 | 15.01813 | 1830 ft | 130 kts | 79° |
| 2026-05-07 20:27 | 78.26468 | 15.06213 | 1656 ft | 130 kts | 86° |
| 2026-05-07 20:27 | 78.26464 | 15.10624 | 1514 ft | 129 kts | 94° |
| 2026-05-07 20:27 | 78.26333 | 15.14987 | 1336 ft | 129 kts | 101° |
| 2026-05-07 20:27 | 78.26135 | 15.19271 | 1152 ft | 128 kts | 104° |
| 2026-05-07 20:28 | 78.25905 | 15.23488 | 980 ft | 127 kts | 105° |
| 2026-05-07 20:28 | 78.25670 | 15.27661 | 808 ft | 126 kts | 105° |
| 2026-05-07 20:28 | 78.25436 | 15.31806 | 635 ft | 125 kts | 105° |
| 2026-05-07 20:28 | 78.25211 | 15.35901 | 443 ft | 122 kts | 105° |
| 2026-05-07 20:29 | 78.24994 | 15.39801 | 230 ft | 118 kts | 105° |
| 2026-05-07 20:29 | 78.24786 | 15.43457 | 94 ft | 103 kts | 105° |
| 2026-05-07 20:29 | 78.24633 | 15.46180 | 90 ft | 60 kts | 105° |
| 2026-05-07 20:29 | 78.24563 | 15.47422 | 87 ft | 24 kts | 105° |
| 2026-05-07 20:30 | 78.24560 | 15.48048 | 87 ft | 14 kts | 51° |
| 2026-05-07 20:30 | 78.24590 | 15.48458 | 87 ft | 12 kts | 83° |
| 2026-05-07 20:30 | 78.24618 | 15.48711 | 88 ft | 6 kts | 30° |
| 2026-05-07 20:30 | 78.24645 | 15.48851 | 90 ft | 6 kts | 78° |
| 2026-05-07 20:31 | 78.24641 | 15.49054 | 87 ft | 6 kts | 101° |
| 2026-05-07 20:31 | 78.24629 | 15.49300 | 88 ft | 9 kts | 104° |
| 2026-05-07 20:31 | 78.24612 | 15.49597 | 87 ft | 9 kts | 105° |
| 2026-05-07 20:31 | 78.24596 | 15.49861 | 87 ft | 7 kts | 106° |
| 2026-05-07 20:32 | 78.24594 | 15.50039 | 87 ft | 3 kts | 83° |
| 2026-05-07 20:32 | 78.24597 | 15.50102 | 87 ft | 0 kts | 72° |